Time;durP1;ratioP1;P1;durP2;ratioP2;P2;SDS_P1;SDS_P2;PMS_P1;PMS_P2;Temp;Humidity;BMP_temperature;BMP_pressure;BME280_temperature;BME280_humidity;BME280_pressure;Samples;Min_cycle;Max_cycle;Signal;HPM_P1;HPM_P2
2022/12/09 00:00:54;;;;;;;26.85;11.23;;;4.30;90.90;;;;;;5114109;28;20031;-79
2022/12/09 00:03:19;;;;;;;25.17;11.57;;;4.30;90.90;;;;;;5114136;28;20028;-79
2022/12/09 00:05:45;;;;;;;26.45;12.15;;;4.30;91.00;;;;;;5114973;28;20032;-78
2022/12/09 00:08:11;;;;;;;29.02;11.90;;;4.30;91.00;;;;;;5114478;28;20028;-78
2022/12/09 00:10:36;;;;;;;24.58;12.43;;;4.30;91.10;;;;;;5114032;28;20035;-78
2022/12/09 00:13:02;;;;;;;28.00;13.13;;;4.20;91.10;;;;;;5114836;28;20035;-78
2022/12/09 00:15:27;;;;;;;23.70;10.98;;;4.30;91.20;;;;;;5114800;28;20032;-78
2022/12/09 00:17:53;;;;;;;30.27;12.27;;;4.20;91.30;;;;;;5113661;28;20043;-78
2022/12/09 00:20:18;;;;;;;26.30;11.98;;;4.10;91.40;;;;;;5113671;28;20073;-78
2022/12/09 00:22:44;;;;;;;26.67;12.63;;;4.10;91.40;;;;;;5113736;28;20081;-78
2022/12/09 00:25:10;;;;;;;27.27;11.68;;;4.10;91.40;;;;;;5113597;28;20054;-79
2022/12/09 00:27:35;;;;;;;27.23;12.32;;;4.10;91.40;;;;;;5113540;28;20028;-78
2022/12/09 00:30:01;;;;;;;31.27;13.82;;;4.20;91.40;;;;;;5114510;28;20054;-78
2022/12/09 00:32:26;;;;;;;27.25;13.25;;;4.20;91.30;;;;;;5114491;28;20088;-78
2022/12/09 00:34:52;;;;;;;28.92;13.23;;;4.30;91.20;;;;;;5113499;28;20031;-78
2022/12/09 00:37:18;;;;;;;27.40;12.80;;;4.30;91.60;;;;;;5079839;28;20066;-78
2022/12/09 00:39:43;;;;;;;28.10;12.57;;;4.40;91.30;;;;;;5113446;28;20028;-78
2022/12/09 00:42:09;;;;;;;31.02;13.15;;;4.40;91.20;;;;;;5096296;28;20024;-78
2022/12/09 00:44:34;;;;;;;27.05;11.98;;;4.40;91.20;;;;;;5113220;28;20024;-78
2022/12/09 00:47:00;;;;;;;31.17;12.77;;;4.30;91.00;;;;;;5113282;28;20513;-78
2022/12/09 00:49:26;;;;;;;30.58;13.02;;;4.20;91.00;;;;;;5113369;28;20036;-78
2022/12/09 00:51:52;;;;;;;27.85;12.90;;;4.10;91.10;;;;;;5114156;28;20084;-79
2022/12/09 00:54:18;;;;;;;29.50;13.25;;;4.10;91.20;;;;;;5113177;28;20020;-78
2022/12/09 00:56:44;;;;;;;33.53;13.23;;;4.00;91.30;;;;;;5113056;28;20028;-78
2022/12/09 00:59:09;;;;;;;30.48;13.77;;;4.00;91.30;;;;;;5114047;28;20036;-79
2022/12/09 01:01:35;;;;;;;32.30;13.68;;;4.10;91.30;;;;;;5112976;28;20054;-78
2022/12/09 01:04:01;;;;;;;27.02;12.63;;;4.00;91.30;;;;;;5114085;28;20027;-78
2022/12/09 01:06:27;;;;;;;32.45;13.60;;;4.00;91.40;;;;;;5113913;28;20020;-78
2022/12/09 01:08:52;;;;;;;31.10;14.13;;;4.00;91.50;;;;;;5113937;28;20024;-78
2022/12/09 01:11:21;;;;;;;29.60;14.13;;;4.00;91.50;;;;;;5113871;28;20059;-78
2022/12/09 01:13:48;;;;;;;31.58;14.05;;;4.00;91.50;;;;;;5112836;28;20054;-78
2022/12/09 01:16:20;;;;;;;35.03;14.57;;;4.00;91.60;;;;;;5112823;28;20087;-78
2022/12/09 01:18:46;;;;;;;31.00;14.30;;;3.90;91.60;;;;;;5113272;28;20062;-78
2022/12/09 01:21:12;;;;;;;40.60;14.18;;;4.00;91.60;;;;;;5095476;28;20033;-78
2022/12/09 01:23:38;;;;;;;31.85;13.68;;;4.00;91.60;;;;;;5112726;28;20020;-78
2022/12/09 01:26:05;;;;;;;33.05;13.90;;;3.90;91.50;;;;;;5095853;28;20017;-78
2022/12/09 01:28:33;;;;;;;34.30;15.30;;;3.90;91.60;;;;;;5113602;28;20031;-78
2022/12/09 01:31:13;;;;;;;31.73;14.52;;;4.00;91.60;;;;;;5112644;28;20348;-78
2022/12/09 01:33:41;;;;;;;32.40;14.80;;;4.00;91.50;;;;;;5113712;28;20028;-78
2022/12/09 01:36:13;;;;;;;39.25;14.52;;;4.00;91.40;;;;;;5112616;28;20091;-78
2022/12/09 01:38:40;;;;;;;32.08;14.90;;;4.00;91.40;;;;;;5111468;28;20048;-78
2022/12/09 01:41:06;;;;;;;35.67;15.18;;;4.10;91.40;;;;;;5112616;28;20028;-78
2022/12/09 01:43:32;;;;;;;34.15;14.02;;;4.10;91.40;;;;;;5095622;28;20039;-79
2022/12/09 01:45:57;;;;;;;30.58;14.23;;;4.10;91.20;;;;;;5095234;28;20052;-78
2022/12/09 01:48:27;;;;;;;35.60;15.43;;;4.20;91.30;;;;;;5112531;28;20040;-79
2022/12/09 01:51:03;;;;;;;38.33;16.15;;;4.10;91.10;;;;;;5112455;28;20031;-78
2022/12/09 01:53:33;;;;;;;32.55;14.48;;;4.20;91.00;;;;;;5113386;28;20110;-78
2022/12/09 01:56:04;;;;;;;34.72;15.13;;;4.10;91.00;;;;;;5113552;28;20024;-78
2022/12/09 01:58:29;;;;;;;35.72;14.48;;;4.10;91.10;;;;;;5112375;28;20092;-78
2022/12/09 02:00:55;;;;;;;34.05;15.38;;;4.10;91.20;;;;;;5113304;28;20028;-79
2022/12/09 02:03:21;;;;;;;35.03;15.00;;;4.20;91.20;;;;;;5113419;28;20024;-78
2022/12/09 02:05:47;;;;;;;35.47;15.95;;;4.20;91.10;;;;;;5112384;28;20032;-78
2022/12/09 02:08:16;;;;;;;33.70;15.43;;;4.20;91.30;;;;;;5113184;28;20070;-78
2022/12/09 02:10:59;;;;;;;37.35;15.85;;;4.20;91.40;;;;;;5112270;28;20020;-78
2022/12/09 02:13:30;;;;;;;32.17;13.73;;;4.20;91.00;;;;;;5112263;28;20028;-78
2022/12/09 02:16:03;;;;;;;45.55;15.82;;;4.20;91.00;;;;;;5112224;28;20091;-78
2022/12/09 02:18:55;;;;;;;39.75;15.02;;;4.30;91.00;;;;;;5113129;28;20084;-78
2022/12/09 02:21:43;;;;;;;30.25;13.43;;;4.30;90.90;;;;;;5100711;28;20028;-78
2022/12/09 02:24:21;;;;;;;35.05;14.57;;;4.30;90.90;;;;;;5113274;28;20012;-78
2022/12/09 02:26:59;;;;;;;36.15;16.48;;;4.30;90.80;;;;;;5112258;28;20026;-78
2022/12/09 02:30:04;;;;;;;32.35;14.32;;;4.30;90.80;;;;;;5112048;28;20028;-78
2022/12/09 02:32:41;;;;;;;33.60;13.50;;;4.30;91.00;;;;;;5018198;28;20129;-78
2022/12/09 02:35:20;;;;;;;30.95;13.80;;;4.30;91.00;;;;;;5018404;28;20030;-78
2022/12/09 02:38:03;;;;;;;37.08;14.52;;;4.30;90.90;;;;;;5079671;28;20032;-78
2022/12/09 02:40:49;;;;;;;35.47;14.63;;;4.30;91.30;;;;;;5115671;28;20039;-78
2022/12/09 02:43:18;;;;;;;34.72;15.23;;;4.40;90.90;;;;;;5116666;28;20035;-78
2022/12/09 02:45:44;;;;;;;42.10;16.35;;;4.40;91.00;;;;;;5116399;28;20032;-78
2022/12/09 02:48:13;;;;;;;41.63;16.17;;;4.40;91.00;;;;;;5081883;28;20085;-78
2022/12/09 02:50:40;;;;;;;33.13;13.70;;;4.50;91.00;;;;;;5116533;28;20029;-78
2022/12/09 02:53:10;;;;;;;37.30;16.00;;;4.50;90.70;;;;;;5115450;28;20024;-78
2022/12/09 02:55:37;;;;;;;37.55;15.65;;;4.40;90.70;;;;;;5115375;28;20024;-78
2022/12/09 02:58:03;;;;;;;33.70;15.45;;;4.30;90.70;;;;;;5115219;28;20033;-78
2022/12/09 03:00:29;;;;;;;40.35;15.00;;;4.30;90.70;;;;;;5115384;28;20419;-78
2022/12/09 03:02:59;;;;;;;35.97;15.07;;;4.30;90.60;;;;;;5098362;28;20049;-78
2022/12/09 03:05:40;;;;;;;37.38;15.63;;;4.30;90.70;;;;;;5115309;28;20103;-78
2022/12/09 03:08:27;;;;;;;34.90;14.77;;;4.20;90.70;;;;;;5115168;28;20028;-78
2022/12/09 03:11:03;;;;;;;41.80;15.80;;;4.20;91.00;;;;;;5115103;28;20060;-78
2022/12/09 03:13:50;;;;;;;36.17;14.23;;;4.10;90.90;;;;;;5115192;28;20020;-78
2022/12/09 03:16:39;;;;;;;37.70;16.08;;;4.10;90.90;;;;;;5115963;28;20028;-78
2022/12/09 03:19:11;;;;;;;39.50;15.98;;;4.10;90.90;;;;;;5116030;28;20475;-78
2022/12/09 03:21:42;;;;;;;40.25;15.45;;;4.20;91.10;;;;;;5115951;28;20045;-78
2022/12/09 03:24:10;;;;;;;38.08;15.18;;;4.10;91.00;;;;;;5115897;28;20024;-78
2022/12/09 03:26:37;;;;;;;39.03;16.30;;;4.20;91.10;;;;;;5115818;28;20024;-78
2022/12/09 03:29:08;;;;;;;46.03;15.55;;;4.20;91.10;;;;;;5115754;28;20087;-78
2022/12/09 03:31:35;;;;;;;35.65;15.18;;;4.10;91.10;;;;;;5115722;28;20024;-78
2022/12/09 03:34:04;;;;;;;43.58;16.35;;;4.20;91.10;;;;;;5114721;28;20020;-78
2022/12/09 03:36:36;;;;;;;46.20;17.08;;;4.20;91.00;;;;;;5115761;28;20017;-78
2022/12/09 03:39:06;;;;;;;41.60;15.02;;;4.20;91.00;;;;;;5115536;28;20024;-79
2022/12/09 03:41:32;;;;;;;36.65;15.95;;;4.30;90.90;;;;;;5115533;28;20024;-78
2022/12/09 03:44:07;;;;;;;44.80;15.63;;;4.30;90.90;;;;;;5096869;28;20031;-78
2022/12/09 03:46:33;;;;;;;38.65;15.70;;;4.30;90.90;;;;;;5115309;28;20032;-78
2022/12/09 03:48:59;;;;;;;39.35;15.43;;;4.30;90.80;;;;;;5115398;28;20049;-78
2022/12/09 03:51:41;;;;;;;39.40;16.73;;;4.20;90.80;;;;;;5115290;28;20028;-78
2022/12/09 03:54:25;;;;;;;40.17;15.45;;;4.30;90.90;;;;;;5115326;28;20050;-78
2022/12/09 03:56:54;;;;;;;40.83;16.45;;;4.30;90.80;;;;;;5114284;28;20047;-78
2022/12/09 03:59:22;;;;;;;41.00;15.90;;;4.30;90.80;;;;;;5114047;28;20039;-78
2022/12/09 04:01:48;;;;;;;35.55;15.07;;;4.30;90.80;;;;;;5115089;28;20047;-78
2022/12/09 04:04:15;;;;;;;45.58;15.95;;;4.30;90.80;;;;;;5114126;28;20024;-78
2022/12/09 04:06:40;;;;;;;36.65;15.27;;;4.20;90.70;;;;;;5114058;28;20024;-79
2022/12/09 04:09:06;;;;;;;37.88;15.50;;;4.20;91.10;;;;;;5113985;28;20020;-78
2022/12/09 04:11:32;;;;;;;42.90;16.85;;;4.20;90.70;;;;;;5096985;28;20487;-78
2022/12/09 04:13:58;;;;;;;42.78;15.95;;;4.20;91.20;;;;;;5113923;28;20028;-79
2022/12/09 04:16:24;;;;;;;41.10;16.83;;;4.30;90.90;;;;;;5113945;28;20032;-78
2022/12/09 04:18:49;;;;;;;40.85;16.33;;;4.30;90.90;;;;;;5113785;28;20038;-78
2022/12/09 04:21:15;;;;;;;39.85;15.93;;;4.40;90.90;;;;;;5113738;28;20024;-78
2022/12/09 04:23:41;;;;;;;33.72;13.95;;;4.40;90.80;;;;;;5113728;28;20024;-78
2022/12/09 04:26:12;;;;;;;40.47;16.35;;;4.30;90.70;;;;;;5096663;28;20024;-78
2022/12/09 04:28:37;;;;;;;37.35;15.15;;;4.30;90.60;;;;;;5114643;28;20032;-79
2022/12/09 04:31:03;;;;;;;37.97;15.82;;;4.20;90.60;;;;;;5096725;28;20043;-78
2022/12/09 04:33:28;;;;;;;45.30;16.50;;;4.30;90.80;;;;;;5113537;28;20028;-78
2022/12/09 04:35:54;;;;;;;43.75;16.00;;;4.20;90.70;;;;;;5113577;28;20043;-78
2022/12/09 04:38:20;;;;;;;44.85;15.57;;;4.20;90.80;;;;;;5113448;28;20032;-78
2022/12/09 04:40:45;;;;;;;39.47;15.90;;;4.20;90.70;;;;;;5114377;28;20084;-78
2022/12/09 04:43:11;;;;;;;39.55;15.50;;;4.20;90.80;;;;;;5096357;28;20023;-79
2022/12/09 04:45:36;;;;;;;45.60;16.08;;;4.20;90.80;;;;;;5113156;28;20095;-78
2022/12/09 04:48:02;;;;;;;47.50;17.40;;;4.20;90.80;;;;;;5079730;28;20020;-79
2022/12/09 04:50:28;;;;;;;43.35;15.73;;;4.10;90.80;;;;;;5114160;28;20471;-78
2022/12/09 04:52:53;;;;;;;47.47;17.30;;;4.10;90.80;;;;;;5113203;28;20047;-78
2022/12/09 04:55:19;;;;;;;43.15;17.88;;;4.10;90.90;;;;;;5096199;28;20027;-78
2022/12/09 04:57:45;;;;;;;38.58;14.93;;;4.00;90.80;;;;;;5113974;28;20475;-78
2022/12/09 05:00:11;;;;;;;50.50;17.77;;;4.10;91.00;;;;;;5112980;28;20032;-79
2022/12/09 05:02:37;;;;;;;42.53;16.20;;;4.00;91.00;;;;;;5114009;28;20028;-78
2022/12/09 05:05:02;;;;;;;53.35;17.77;;;4.10;91.00;;;;;;5113907;28;20030;-78
2022/12/09 05:07:30;;;;;;;43.55;16.25;;;4.10;91.00;;;;;;5113846;28;20032;-78
2022/12/09 05:09:56;;;;;;;40.92;15.95;;;4.10;91.00;;;;;;5113928;28;20048;-79
2022/12/09 05:12:23;;;;;;;49.28;17.50;;;4.10;91.10;;;;;;5112996;28;20383;-78
2022/12/09 05:14:49;;;;;;;53.40;18.90;;;4.20;91.00;;;;;;5112864;28;20030;-78
2022/12/09 05:17:14;;;;;;;45.63;16.30;;;4.20;91.00;;;;;;5112833;28;20036;-78
2022/12/09 05:19:40;;;;;;;44.30;17.75;;;4.20;90.90;;;;;;5095845;28;20095;-78
2022/12/09 05:22:05;;;;;;;39.75;15.85;;;4.10;90.90;;;;;;5112845;28;20032;-78
2022/12/09 05:24:31;;;;;;;46.67;17.63;;;4.10;91.00;;;;;;5113668;28;20021;-78
2022/12/09 05:26:57;;;;;;;46.78;16.92;;;4.20;91.10;;;;;;5112662;28;20032;-78
2022/12/09 05:29:23;;;;;;;48.53;17.17;;;4.20;91.00;;;;;;5095845;28;20032;-79
2022/12/09 05:31:50;;;;;;;49.80;17.52;;;4.30;91.00;;;;;;5112736;28;20027;-78
2022/12/09 05:34:16;;;;;;;47.08;16.88;;;4.30;91.00;;;;;;5112657;28;20479;-78
2022/12/09 05:36:42;;;;;;;45.50;15.65;;;4.30;90.80;;;;;;5113540;28;20035;-78
2022/12/09 05:39:07;;;;;;;45.88;16.48;;;4.30;90.90;;;;;;5095623;28;20024;-79
2022/12/09 05:41:33;;;;;;;47.67;17.17;;;4.30;91.20;;;;;;5112690;28;20483;-78
2022/12/09 05:43:58;;;;;;;45.72;16.27;;;4.30;90.70;;;;;;5113554;28;20024;-78
2022/12/09 05:46:24;;;;;;;47.25;17.45;;;4.40;90.80;;;;;;5113265;28;20052;-78
2022/12/09 05:48:50;;;;;;;51.28;16.90;;;4.40;90.80;;;;;;5112441;28;20077;-77
2022/12/09 05:51:25;;;;;;;45.67;16.58;;;4.40;90.70;;;;;;5112240;28;20028;-76
2022/12/09 05:53:51;;;;;;;43.90;15.70;;;4.30;90.70;;;;;;5113396;28;20082;-77
2022/12/09 05:56:19;;;;;;;44.33;16.35;;;4.30;90.60;;;;;;5113317;28;20054;-78
2022/12/09 05:58:45;;;;;;;43.38;17.02;;;4.30;90.70;;;;;;5112294;28;20020;-78
2022/12/09 06:01:12;;;;;;;56.78;16.23;;;4.30;90.70;;;;;;5112372;28;20016;-78
2022/12/09 06:03:37;;;;;;;49.00;17.27;;;4.30;90.80;;;;;;5113315;28;20032;-78
2022/12/09 06:06:08;;;;;;;39.05;17.05;;;4.40;90.80;;;;;;5113878;28;20031;-78
2022/12/09 06:08:34;;;;;;;49.22;16.92;;;4.30;90.70;;;;;;5099898;28;20050;-78
2022/12/09 06:11:00;;;;;;;46.85;16.38;;;4.40;90.70;;;;;;5116295;28;20050;-78
2022/12/09 06:13:25;;;;;;;48.85;17.35;;;4.40;90.60;;;;;;5116244;28;20024;-78
2022/12/09 06:15:52;;;;;;;45.38;16.92;;;4.30;90.50;;;;;;5116229;28;20028;-78
2022/12/09 06:18:17;;;;;;;42.25;15.90;;;4.20;90.60;;;;;;5116115;28;20044;-78
2022/12/09 06:20:43;;;;;;;47.67;17.38;;;4.20;90.70;;;;;;5117043;28;20083;-78
2022/12/09 06:23:08;;;;;;;44.42;16.67;;;4.20;90.70;;;;;;5116102;28;20024;-78
2022/12/09 06:25:34;;;;;;;45.17;17.13;;;4.20;90.70;;;;;;5115888;28;20031;-78
2022/12/09 06:28:00;;;;;;;45.05;15.60;;;4.20;90.70;;;;;;5116912;28;20028;-77
2022/12/09 06:30:26;;;;;;;46.25;16.73;;;4.00;90.40;;;;;;5098859;28;20039;-78
2022/12/09 06:32:51;;;;;;;48.85;14.80;;;4.00;90.60;;;;;;5082245;28;20012;-77
2022/12/09 06:35:17;;;;;;;48.35;16.80;;;3.90;90.80;;;;;;5115862;28;20040;-78
2022/12/09 06:37:42;;;;;;;42.63;15.90;;;3.90;90.90;;;;;;5098773;28;20107;-78
2022/12/09 06:40:09;;;;;;;45.80;16.40;;;3.80;91.40;;;;;;5098693;28;20091;-77
2022/12/09 06:42:35;;;;;;;49.03;15.93;;;3.80;91.00;;;;;;5115592;28;20042;-78
2022/12/09 06:45:00;;;;;;;43.83;14.70;;;3.80;91.00;;;;;;5116355;28;20037;-78
2022/12/09 06:47:26;;;;;;;41.30;15.15;;;3.80;90.90;;;;;;5098336;28;20055;-77
2022/12/09 06:49:51;;;;;;;43.85;15.25;;;3.90;91.00;;;;;;5115580;28;20024;-78
2022/12/09 06:52:17;;;;;;;38.35;14.73;;;3.80;91.00;;;;;;5115646;28;20479;-78
2022/12/09 06:54:43;;;;;;;39.53;14.93;;;3.70;91.00;;;;;;5115467;28;20039;-78
2022/12/09 06:57:08;;;;;;;36.88;15.02;;;3.60;91.10;;;;;;5116349;28;20043;-77
2022/12/09 06:59:35;;;;;;;43.13;14.25;;;3.70;91.20;;;;;;5115502;28;20086;-78
2022/12/09 07:02:00;;;;;;;40.15;14.25;;;3.70;91.00;;;;;;5098383;28;20131;-78
2022/12/09 07:04:26;;;;;;;42.55;13.63;;;3.70;90.80;;;;;;5116222;28;20020;-78
2022/12/09 07:06:52;;;;;;;43.88;13.98;;;3.70;90.90;;;;;;5115235;28;20498;-78
2022/12/09 07:09:19;;;;;;;48.75;14.98;;;3.70;91.00;;;;;;5115191;28;20028;-78
2022/12/09 07:11:46;;;;;;;44.15;13.88;;;3.70;90.90;;;;;;5098189;28;20042;-78
2022/12/09 07:14:13;;;;;;;48.42;15.48;;;3.70;90.90;;;;;;5116041;28;20031;-78
2022/12/09 07:16:39;;;;;;;39.30;13.93;;;3.70;91.00;;;;;;5114354;28;20020;-77
2022/12/09 07:19:06;;;;;;;33.92;13.52;;;3.80;91.00;;;;;;5114363;28;20024;-77
2022/12/09 07:21:32;;;;;;;41.10;15.00;;;3.80;91.30;;;;;;5114880;28;20020;-77
2022/12/09 07:23:59;;;;;;;37.10;14.48;;;3.90;91.10;;;;;;5098097;28;20028;-77
2022/12/09 07:26:25;;;;;;;36.33;13.55;;;3.90;90.50;;;;;;5115847;28;20016;-78
2022/12/09 07:28:51;;;;;;;38.35;13.93;;;3.80;90.50;;;;;;5114771;28;20042;-78
2022/12/09 07:31:23;;;;;;;35.13;13.10;;;3.80;90.60;;;;;;5114864;28;20028;-78
2022/12/09 07:33:50;;;;;;;38.47;13.88;;;3.80;90.20;;;;;;5114695;28;20024;-78
2022/12/09 07:36:16;;;;;;;35.80;13.10;;;3.80;90.40;;;;;;5097782;28;20032;-77
2022/12/09 07:38:42;;;;;;;39.00;13.18;;;3.90;90.50;;;;;;5097575;28;20084;-77
2022/12/09 07:41:16;;;;;;;30.45;13.20;;;3.90;90.50;;;;;;5114657;28;20043;-78
2022/12/09 07:43:44;;;;;;;36.00;13.35;;;4.00;90.40;;;;;;5115579;28;20023;-78
2022/12/09 07:46:10;;;;;;;34.08;12.23;;;4.00;90.30;;;;;;5114302;28;20122;-78
2022/12/09 07:48:35;;;;;;;35.08;14.07;;;4.10;90.20;;;;;;5115410;28;20027;-78
2022/12/09 07:51:02;;;;;;;31.00;13.98;;;4.00;90.00;;;;;;5115304;28;20032;-77
2022/12/09 07:53:28;;;;;;;38.85;16.30;;;4.00;89.90;;;;;;5115259;28;20036;-77
2022/12/09 07:55:54;;;;;;;37.25;14.75;;;4.00;89.50;;;;;;5114306;28;20080;-77
2022/12/09 07:58:19;;;;;;;39.22;15.00;;;3.90;89.40;;;;;;5097245;28;20025;-77
2022/12/09 08:00:45;;;;;;;42.70;13.23;;;3.90;89.80;;;;;;5115126;28;20032;-77
2022/12/09 08:03:12;;;;;;;34.13;12.88;;;3.90;89.70;;;;;;5114169;28;20089;-77
2022/12/09 08:05:49;;;;;;;28.50;10.80;;;3.90;89.60;;;;;;5115079;28;20521;-77
2022/12/09 08:08:14;;;;;;;28.58;11.48;;;3.80;88.90;;;;;;5113930;28;20028;-77
2022/12/09 08:10:42;;;;;;;36.10;12.95;;;3.70;89.20;;;;;;5114863;28;20035;-77
2022/12/09 08:13:07;;;;;;;30.90;11.68;;;3.70;89.70;;;;;;5097211;28;20054;-78
2022/12/09 08:15:33;;;;;;;32.38;12.10;;;3.70;89.70;;;;;;5114867;28;20028;-77
2022/12/09 08:17:59;;;;;;;34.28;13.00;;;3.70;90.10;;;;;;5114740;28;20038;-77
2022/12/09 08:20:24;;;;;;;35.33;13.15;;;3.80;90.20;;;;;;5114019;28;20024;-77
2022/12/09 08:22:50;;;;;;;33.20;13.98;;;3.90;90.20;;;;;;5096828;28;20043;-77
2022/12/09 08:25:16;;;;;;;38.40;13.75;;;3.90;90.20;;;;;;5113783;28;20100;-77
2022/12/09 08:27:41;;;;;;;35.30;12.90;;;3.90;90.20;;;;;;5114603;28;20038;-77
2022/12/09 08:30:07;;;;;;;34.10;13.10;;;4.00;90.20;;;;;;5113319;28;20043;-77
2022/12/09 08:32:33;;;;;;;37.13;12.90;;;4.00;90.10;;;;;;5114521;28;20037;-77
2022/12/09 08:34:59;;;;;;;36.03;12.85;;;4.10;90.10;;;;;;5096458;28;20032;-78
2022/12/09 08:37:24;;;;;;;33.28;12.82;;;4.10;90.00;;;;;;5096506;28;20028;-77
2022/12/09 08:39:50;;;;;;;30.75;13.13;;;4.10;89.90;;;;;;5096476;28;20032;-77
2022/12/09 08:42:15;;;;;;;36.30;13.98;;;4.10;89.80;;;;;;5079916;28;20036;-77
2022/12/09 08:44:41;;;;;;;38.25;13.07;;;4.10;89.80;;;;;;5096388;28;20024;-77
2022/12/09 08:47:07;;;;;;;40.85;14.57;;;4.10;89.70;;;;;;5114007;28;20511;-77
2022/12/09 08:49:32;;;;;;;36.65;13.70;;;4.10;89.50;;;;;;5114211;28;20056;-78
2022/12/09 08:51:58;;;;;;;38.33;14.27;;;4.10;90.00;;;;;;5113157;28;20060;-77
2022/12/09 08:54:23;;;;;;;38.22;13.25;;;4.10;89.30;;;;;;5096437;28;20028;-78
2022/12/09 08:56:53;;;;;;;36.70;12.38;;;4.10;89.40;;;;;;5113332;28;20028;-78
2022/12/09 08:59:19;;;;;;;39.22;13.65;;;4.00;89.20;;;;;;5114156;28;20027;-77
2022/12/09 09:01:46;;;;;;;40.55;13.88;;;4.00;89.30;;;;;;5112988;28;20012;-78
2022/12/09 09:04:15;;;;;;;36.13;13.18;;;3.90;89.50;;;;;;5112999;28;20421;-77
2022/12/09 09:06:43;;;;;;;41.88;13.75;;;3.90;89.20;;;;;;5112943;28;20054;-77
2022/12/09 09:09:11;;;;;;;35.38;12.90;;;3.90;89.40;;;;;;5112851;28;20028;-77
2022/12/09 09:11:38;;;;;;;36.50;12.48;;;3.90;89.50;;;;;;5113904;28;20108;-77
2022/12/09 09:14:06;;;;;;;34.45;11.48;;;3.90;89.50;;;;;;5113876;28;20043;-77
2022/12/09 09:16:32;;;;;;;30.35;11.68;;;4.10;89.40;;;;;;5096200;28;20036;-77
2022/12/09 09:18:58;;;;;;;41.90;12.48;;;4.20;89.40;;;;;;5112680;28;20112;-77
2022/12/09 09:21:25;;;;;;;34.90;12.43;;;4.50;89.60;;;;;;5096037;28;20028;-77
2022/12/09 09:23:51;;;;;;;36.28;12.43;;;4.50;87.90;;;;;;5113705;28;20035;-77
2022/12/09 09:26:20;;;;;;;39.33;11.93;;;4.50;87.50;;;;;;5113705;28;20020;-78
2022/12/09 09:28:46;;;;;;;35.67;12.77;;;5.00;87.50;;;;;;5113673;28;20024;-77
2022/12/09 09:31:15;;;;;;;35.22;13.07;;;5.00;85.50;;;;;;5095681;28;20051;-77
2022/12/09 09:33:41;;;;;;;32.75;11.75;;;4.90;85.30;;;;;;5112603;28;20092;-77
2022/12/09 09:36:10;;;;;;;31.00;13.25;;;4.70;85.70;;;;;;5112639;28;20087;-77
2022/12/09 09:38:36;;;;;;;34.53;11.90;;;4.60;86.00;;;;;;5113465;28;20028;-77
2022/12/09 09:41:14;;;;;;;33.83;11.88;;;4.50;86.30;;;;;;5111922;28;20052;-77
2022/12/09 09:43:40;;;;;;;37.47;13.90;;;4.50;86.90;;;;;;5113517;28;20042;-78
2022/12/09 09:46:08;;;;;;;36.72;12.18;;;4.50;86.90;;;;;;5112247;28;20032;-78
2022/12/09 09:48:35;;;;;;;34.45;12.02;;;4.50;86.90;;;;;;5113483;28;20036;-77
2022/12/09 09:51:19;;;;;;;39.40;12.35;;;4.40;86.50;;;;;;5112394;28;20095;-77
2022/12/09 09:53:50;;;;;;;30.48;12.05;;;4.20;85.70;;;;;;5112459;28;20036;-77
2022/12/09 09:56:25;;;;;;;32.63;12.10;;;4.10;86.20;;;;;;5113388;28;20079;-77
2022/12/09 09:59:08;;;;;;;30.00;11.07;;;4.00;86.80;;;;;;5113299;28;20050;-77
2022/12/09 10:01:35;;;;;;;35.78;12.05;;;4.00;86.20;;;;;;5112366;28;20079;-77
2022/12/09 10:04:24;;;;;;;35.42;12.82;;;3.80;86.40;;;;;;5113288;28;20016;-77
2022/12/09 10:07:12;;;;;;;35.13;12.38;;;3.70;87.60;;;;;;5112318;28;20023;-77
2022/12/09 10:10:04;;;;;;;32.53;11.63;;;3.60;87.60;;;;;;5113233;28;20039;-77
2022/12/09 10:13:00;;;;;;;32.50;12.48;;;3.70;87.60;;;;;;5112138;28;20080;-77
2022/12/09 10:15:32;;;;;;;28.30;10.77;;;3.70;88.00;;;;;;5113257;28;20058;-77
2022/12/09 10:18:18;;;;;;;35.92;13.23;;;3.80;88.10;;;;;;5113100;28;20032;-77
2022/12/09 10:20:44;;;;;;;34.13;12.95;;;3.90;88.40;;;;;;5113216;28;20046;-77
2022/12/09 10:23:14;;;;;;;33.63;11.88;;;3.90;88.60;;;;;;5113110;28;20024;-77
2022/12/09 10:25:49;;;;;;;41.30;13.80;;;4.00;88.20;;;;;;5112219;28;20020;-77
2022/12/09 10:28:28;;;;;;;33.90;11.90;;;4.00;87.80;;;;;;5112180;28;20048;-77
2022/12/09 10:30:54;;;;;;;35.72;13.07;;;4.00;88.20;;;;;;5113120;28;20032;-77
2022/12/09 10:33:28;;;;;;;35.03;11.77;;;4.00;87.70;;;;;;5113055;28;20063;-77
2022/12/09 10:35:55;;;;;;;34.53;12.15;;;4.00;87.40;;;;;;5111975;28;20020;-77
2022/12/09 10:38:21;;;;;;;28.63;10.70;;;4.00;87.30;;;;;;5095096;28;20025;-77
2022/12/09 10:40:48;;;;;;;32.65;11.70;;;4.00;87.00;;;;;;5112977;28;20058;-77
2022/12/09 10:46:18;;;;;;;30.52;11.77;;;4.00;86.70;;;;;;5112793;28;20054;-77
2022/12/09 10:48:47;;;;;;;39.38;12.85;;;3.90;86.30;;;;;;5072601;28;20039;-77
2022/12/09 10:51:17;;;;;;;30.95;11.50;;;3.90;87.20;;;;;;5072639;28;20033;-78
2022/12/09 10:53:53;;;;;;;31.13;11.25;;;3.90;86.70;;;;;;5075048;28;20079;-77
2022/12/09 10:56:23;;;;;;;33.45;12.00;;;3.90;87.00;;;;;;5076008;28;20036;-78
2022/12/09 10:59:07;;;;;;;30.90;11.00;;;4.00;87.40;;;;;;5075209;28;20022;-78
2022/12/09 11:01:51;;;;;;;32.35;12.10;;;4.10;87.50;;;;;;5075126;28;20078;-78
2022/12/09 11:04:30;;;;;;;37.88;12.00;;;4.10;87.20;;;;;;5076064;28;20021;-78
2022/12/09 11:07:00;;;;;;;34.45;11.45;;;4.10;87.00;;;;;;5075801;28;20108;-78
2022/12/09 11:09:30;;;;;;;26.20;10.57;;;4.10;86.80;;;;;;5075847;28;20056;-78
2022/12/09 11:11:56;;;;;;;30.23;12.00;;;4.10;87.00;;;;;;5075748;28;20028;-78
2022/12/09 11:14:27;;;;;;;34.38;11.50;;;4.10;86.60;;;;;;5074660;28;20021;-78
2022/12/09 11:16:58;;;;;;;31.00;11.50;;;4.10;86.90;;;;;;5074754;28;20031;-78
2022/12/09 11:19:45;;;;;;;33.33;11.23;;;4.20;86.60;;;;;;5074542;28;20053;-78
2022/12/09 11:22:39;;;;;;;33.88;11.02;;;4.20;86.30;;;;;;5074509;28;20071;-78
2022/12/09 11:25:10;;;;;;;36.00;11.50;;;4.20;86.30;;;;;;5075639;28;20028;-78
2022/12/09 11:27:39;;;;;;;38.10;11.90;;;4.10;86.40;;;;;;5074466;28;20021;-78
2022/12/09 11:30:16;;;;;;;31.40;11.10;;;4.10;87.30;;;;;;5074396;28;20100;-78
2022/12/09 11:33:07;;;;;;;31.48;11.57;;;4.20;87.80;;;;;;5075332;28;20025;-78
2022/12/09 11:35:52;;;;;;;27.02;10.52;;;4.20;87.90;;;;;;5075438;28;20345;-77
2022/12/09 11:38:37;;;;;;;28.52;10.77;;;4.20;86.90;;;;;;5075190;28;20056;-78
2022/12/09 11:41:05;;;;;;;26.90;10.15;;;4.30;86.60;;;;;;5075246;28;20108;-78
2022/12/09 11:43:38;;;;;;;33.63;12.38;;;4.30;86.00;;;;;;5074347;28;20044;-78
2022/12/09 11:46:13;;;;;;;26.77;9.60;;;4.30;86.00;;;;;;5074271;28;20017;-77
2022/12/09 11:48:46;;;;;;;32.45;10.88;;;4.30;84.80;;;;;;5074068;28;20037;-77
2022/12/09 11:51:25;;;;;;;31.35;11.80;;;4.30;84.80;;;;;;5075050;28;20090;-77
2022/12/09 11:53:56;;;;;;;37.15;12.07;;;4.30;85.40;;;;;;5073921;28;20032;-77
2022/12/09 11:56:27;;;;;;;37.13;11.88;;;4.30;85.50;;;;;;5074018;28;20032;-77
2022/12/09 11:59:16;;;;;;;33.33;12.85;;;4.30;86.00;;;;;;5074787;28;20040;-77
2022/12/09 12:02:07;;;;;;;30.17;11.45;;;4.40;84.90;;;;;;5073857;28;20051;-77
2022/12/09 12:04:38;;;;;;;30.73;11.65;;;4.40;85.40;;;;;;5074226;28;20032;-77
2022/12/09 12:07:16;;;;;;;37.67;12.30;;;4.40;86.00;;;;;;5074764;28;20021;-78
2022/12/09 12:09:52;;;;;;;32.95;11.68;;;4.50;85.80;;;;;;5074590;28;20036;-77
2022/12/09 12:12:45;;;;;;;32.97;11.68;;;4.60;85.80;;;;;;5073675;28;20021;-77
2022/12/09 12:15:24;;;;;;;32.10;11.98;;;4.60;85.80;;;;;;5055738;28;20108;-77
2022/12/09 12:17:55;;;;;;;31.48;12.60;;;4.60;85.60;;;;;;5074545;28;20080;-77
2022/12/09 12:20:33;;;;;;;28.45;10.88;;;4.70;85.20;;;;;;5074467;28;20097;-77
2022/12/09 12:23:26;;;;;;;31.25;11.35;;;4.70;84.80;;;;;;5074441;28;20013;-77
2022/12/09 12:26:04;;;;;;;32.28;11.25;;;4.70;84.80;;;;;;5073411;28;20025;-77
2022/12/09 12:28:45;;;;;;;34.08;11.88;;;4.60;84.20;;;;;;5073276;28;20029;-77
2022/12/09 12:31:38;;;;;;;30.95;12.02;;;4.50;83.70;;;;;;5074320;28;20029;-77
2022/12/09 12:34:13;;;;;;;35.38;12.23;;;4.50;84.30;;;;;;5073149;28;20029;-77
2022/12/09 12:37:01;;;;;;;36.67;12.02;;;4.40;84.50;;;;;;5074265;28;20033;-78
2022/12/09 12:39:33;;;;;;;34.65;11.27;;;4.50;85.30;;;;;;5073036;28;20068;-77
2022/12/09 12:42:20;;;;;;;36.72;13.32;;;4.60;85.40;;;;;;5073085;28;20053;-78
2022/12/09 12:47:59;;;;;;;38.15;12.50;;;4.70;85.60;;;;;;5101022;28;20510;-77
2022/12/09 12:50:42;;;;;;;32.05;11.90;;;4.70;86.10;;;;;;5114277;28;20024;-77
2022/12/09 12:53:20;;;;;;;37.10;12.13;;;4.60;85.10;;;;;;5114217;28;20020;-77
2022/12/09 12:56:03;;;;;;;35.70;13.20;;;4.60;85.10;;;;;;5113265;28;20023;-78